Time;durP1;ratioP1;P1;durP2;ratioP2;P2;SDS_P1;SDS_P2;PMS_P1;PMS_P2;Temp;Humidity;BMP_temperature;BMP_pressure;BME280_temperature;BME280_humidity;BME280_pressure;Samples;Min_cycle;Max_cycle;Signal;HPM_P1;HPM_P2
2021/06/22 00:00:28;;;;;;;12.65;6.28;;;;;;;19.24;95.27;96708.13;5063259;28;20123;-69
2021/06/22 00:02:54;;;;;;;11.15;5.90;;;;;;;18.82;93.24;96627.66;5062701;28;20040;-68
2021/06/22 00:05:21;;;;;;;7.03;6.32;;;;;;;18.45;93.52;96594.38;5063358;28;20032;-69
2021/06/22 00:07:48;;;;;;;10.70;6.22;;;;;;;19.16;94.64;96701.06;5061724;28;20029;-68
2021/06/22 00:10:15;;;;;;;7.95;5.75;;;;;;;19.13;94.54;96701.94;5063047;28;20036;-67
2021/06/22 00:12:41;;;;;;;7.13;6.20;;;;;;;18.91;96.34;96700.81;5061949;28;20029;-68
2021/06/22 00:15:08;;;;;;;9.02;6.43;;;;;;;18.94;96.27;96699.97;5061802;28;20039;-68
2021/06/22 00:17:34;;;;;;;9.85;6.68;;;;;;;18.54;96.52;96653.47;5061557;28;20127;-69
2021/06/22 00:20:00;;;;;;;8.70;6.10;;;;;;;18.58;96.07;96637.38;5063856;28;20491;-69
2021/06/22 00:22:25;;;;;;;7.35;5.85;;;;;;;18.86;96.59;96687.28;5062647;28;20052;-69
2021/06/22 00:24:51;;;;;;;8.00;6.20;;;;;;;18.62;96.60;96654.94;5063365;28;20470;-69
2021/06/22 00:27:17;;;;;;;8.57;7.18;;;;;;;18.88;96.42;96678.44;5063205;28;20067;-69
2021/06/22 00:29:44;;;;;;;8.90;7.25;;;;;;;18.77;96.24;96650.63;5063412;28;20056;-69
2021/06/22 00:32:10;;;;;;;11.82;7.07;;;;;;;18.93;96.43;96675.94;5063062;28;20048;-69
2021/06/22 00:34:36;;;;;;;9.27;7.47;;;;;;;18.26;96.95;96586.72;5061662;28;20025;-68
2021/06/22 00:37:02;;;;;;;7.88;6.72;;;;;;;18.80;97.74;96683.41;5061813;28;20041;-69
2021/06/22 00:39:28;;;;;;;9.88;7.25;;;;;;;18.76;98.13;96679.88;5063234;28;20435;-70
2021/06/22 00:41:53;;;;;;;9.65;7.15;;;;;;;18.75;97.81;96686.72;5062774;28;20235;-67
2021/06/22 00:44:18;;;;;;;12.10;6.57;;;;;;;18.79;95.85;96693.06;5063372;28;20464;-67
2021/06/22 00:46:44;;;;;;;10.25;6.68;;;;;;;18.80;96.02;96683.41;5063074;28;20512;-69
2021/06/22 00:49:09;;;;;;;10.20;6.60;;;;;;;18.68;95.92;96663.63;5063417;28;20409;-67
2021/06/22 00:51:36;;;;;;;12.90;6.90;;;;;;;18.16;96.44;96565.31;5063064;28;20032;-68
2021/06/22 00:54:01;;;;;;;9.23;7.65;;;;;;;18.79;97.15;96665.00;5063536;28;20086;-69
2021/06/22 00:56:31;;;;;;;8.07;6.70;;;;;;;18.73;96.32;96661.09;5062738;28;20036;-69
2021/06/22 00:58:59;;;;;;;11.23;7.55;;;;;;;17.88;95.17;96532.22;5061481;28;20498;-68
2021/06/22 01:01:24;;;;;;;9.20;6.95;;;;;;;18.81;95.49;96668.16;5061312;28;20458;-67
2021/06/22 01:03:50;;;;;;;10.68;7.53;;;;;;;18.76;96.79;96679.88;5062822;28;20043;-68
2021/06/22 01:06:17;;;;;;;12.52;7.88;;;;;;;18.71;96.57;96674.00;5061210;28;20086;-69
2021/06/22 01:08:43;;;;;;;9.43;7.80;;;;;;;18.60;98.35;96668.63;5063449;28;20139;-68
2021/06/22 01:11:08;;;;;;;11.32;7.45;;;;;;;17.58;96.62;96501.59;5062218;28;20028;-68
2021/06/22 01:13:33;;;;;;;10.65;7.38;;;;;;;18.57;96.45;96666.69;5062925;28;20033;-69
2021/06/22 01:15:59;;;;;;;9.10;7.95;;;;;;;18.51;95.65;96664.81;5060883;28;20044;-68
2021/06/22 01:18:24;;;;;;;13.13;8.93;;;;;;;18.47;96.31;96670.47;5062704;28;20028;-68
2021/06/22 01:20:55;;;;;;;15.85;9.40;;;;;;;18.05;97.28;96606.78;5062699;28;20074;-69
2021/06/22 01:23:20;;;;;;;13.30;8.88;;;;;;;18.35;98.20;96662.69;5061248;28;20049;-69
2021/06/22 01:25:46;;;;;;;12.73;8.10;;;;;;;17.76;97.90;96558.09;5062638;28;20029;-68
2021/06/22 01:28:11;;;;;;;12.70;8.32;;;;;;;18.38;97.73;96661.84;5061399;28;20028;-68
2021/06/22 01:30:37;;;;;;;8.88;7.38;;;;;;;18.31;98.49;96667.53;5065750;28;20029;-67
2021/06/22 01:33:04;;;;;;;11.10;6.90;;;;;;;18.19;96.54;96642.97;5066319;28;20028;-67
2021/06/22 01:35:31;;;;;;;11.27;7.18;;;;;;;18.04;98.66;96666.84;5064588;28;20406;-68
2021/06/22 01:37:59;;;;;;;10.30;6.95;;;;;;;18.03;98.61;96662.47;5066357;28;20039;-68
2021/06/22 01:40:26;;;;;;;8.82;7.35;;;;;;;17.52;99.19;96576.13;5065733;28;20495;-67
2021/06/22 01:42:52;;;;;;;10.65;7.65;;;;;;;18.10;98.59;96667.94;5066293;28;20068;-67
2021/06/22 01:45:18;;;;;;;9.93;7.45;;;;;;;17.99;98.17;96640.13;5066310;28;20028;-68
2021/06/22 01:47:44;;;;;;;8.65;7.85;;;;;;;15.33;98.03;96393.22;5065140;28;20033;-69
2021/06/22 01:50:11;;;;;;;11.50;7.95;;;;;;;18.13;98.81;96649.50;5065938;28;20029;-69
2021/06/22 01:52:37;;;;;;;9.00;7.50;;;;;;;17.97;99.40;96647.38;5064735;28;20037;-69
2021/06/22 01:55:39;;;;;;;9.57;7.53;;;;;;;15.93;98.59;96315.00;5066045;28;20086;-68
2021/06/22 01:57:57;;;;;;;11.50;7.28;;;;;;;17.46;98.71;96555.44;5065772;28;20060;-66
2021/06/22 02:00:23;;;;;;;10.48;7.28;;;;;;;18.00;98.16;96638.13;5064312;28;20425;-69
2021/06/22 02:02:48;;;;;;;10.55;7.38;;;;;;;17.87;99.75;96656.75;5066324;28;20091;-68
2021/06/22 02:05:14;;;;;;;11.50;8.48;;;;;;;17.84;100.00;96632.41;5065407;28;20505;-69
2021/06/22 02:07:41;;;;;;;11.40;8.10;;;;;;;17.85;99.98;96633.97;5064064;28;20068;-69
2021/06/22 02:10:08;;;;;;;9.90;8.90;;;;;;;17.72;100.00;96614.19;5063858;28;20036;-69
2021/06/22 02:12:33;;;;;;;15.60;8.43;;;;;;;17.64;99.70;96592.34;5065904;28;20593;-68
2021/06/22 02:14:59;;;;;;;14.00;9.23;;;;;;;17.90;100.00;96633.47;5064177;28;20123;-67
2021/06/22 02:17:24;;;;;;;10.95;8.35;;;;;;;17.47;100.00;96565.41;5065445;28;20039;-67
2021/06/22 02:19:50;;;;;;;10.82;9.00;;;;;;;17.90;99.81;96647.50;5064449;28;20035;-68
2021/06/22 02:22:15;;;;;;;12.00;8.75;;;;;;;17.84;98.74;96598.78;5063232;28;20048;-67
2021/06/22 02:24:40;;;;;;;10.07;8.43;;;;;;;18.01;98.94;96642.50;5063854;28;20054;-68
2021/06/22 02:27:06;;;;;;;11.40;8.80;;;;;;;18.04;98.62;96622.00;5063551;28;20051;-68
2021/06/22 02:29:32;;;;;;;14.60;8.73;;;;;;;17.95;98.76;96621.78;5063789;28;20036;-68
2021/06/22 02:31:57;;;;;;;11.02;7.95;;;;;;;17.94;98.90;96637.03;5064938;28;20044;-69
2021/06/22 02:34:23;;;;;;;13.48;8.68;;;;;;;17.93;99.39;96624.22;5065762;28;20104;-67
2021/06/22 02:36:48;;;;;;;9.38;8.45;;;;;;;17.98;99.53;96626.53;5064892;28;20047;-68
2021/06/22 02:39:14;;;;;;;12.02;8.52;;;;;;;17.37;98.05;96543.97;5063520;28;20024;-68
2021/06/22 02:41:39;;;;;;;10.02;9.02;;;;;;;17.99;98.45;96630.91;5062907;28;20051;-68
2021/06/22 02:44:04;;;;;;;14.68;8.85;;;;;;;17.42;98.23;96532.31;5064911;28;20039;-68
2021/06/22 02:46:30;;;;;;;9.70;8.70;;;;;;;18.13;98.27;96633.44;5063075;28;20055;-68
2021/06/22 02:48:55;;;;;;;14.30;8.65;;;;;;;17.80;98.47;96592.44;5063951;28;20032;-68
2021/06/22 02:51:21;;;;;;;13.32;8.25;;;;;;;18.13;97.19;96635.47;5064871;28;20044;-69
2021/06/22 02:53:46;;;;;;;16.05;8.45;;;;;;;17.93;95.64;96610.22;5064373;28;20059;-68
2021/06/22 02:56:12;;;;;;;11.77;8.07;;;;;;;17.97;97.05;96636.94;5064455;28;20682;-68
2021/06/22 02:58:37;;;;;;;10.88;8.60;;;;;;;17.87;98.75;96631.53;5063012;28;20074;-67
2021/06/22 03:01:03;;;;;;;13.82;8.85;;;;;;;17.92;98.90;96628.25;5064555;28;20144;-68
2021/06/22 03:03:28;;;;;;;10.77;9.23;;;;;;;17.65;98.46;96579.91;5064671;28;20076;-67
2021/06/22 03:05:53;;;;;;;12.18;8.82;;;;;;;18.07;97.37;96623.94;5064401;28;20040;-67
2021/06/22 03:08:19;;;;;;;8.63;7.82;;;;;;;18.11;96.30;96624.69;5064732;28;20032;-69
2021/06/22 03:10:44;;;;;;;9.15;7.93;;;;;;;18.15;96.20;96624.63;5064111;28;20111;-68
2021/06/22 03:13:10;;;;;;;9.63;8.38;;;;;;;18.17;95.42;96617.34;5064409;28;20025;-69
2021/06/22 03:15:35;;;;;;;9.57;8.63;;;;;;;18.33;96.24;96641.88;5063981;28;20024;-69
2021/06/22 03:18:01;;;;;;;12.70;7.75;;;;;;;18.16;96.37;96598.97;5062773;28;20028;-67
2021/06/22 03:20:26;;;;;;;12.35;8.40;;;;;;;18.51;94.80;96637.53;5063858;28;20037;-69
2021/06/22 03:22:52;;;;;;;12.68;8.85;;;;;;;18.41;94.25;96641.34;5063972;28;20052;-68
2021/06/22 03:25:18;;;;;;;10.40;8.10;;;;;;;18.43;94.19;96646.53;5062131;28;20033;-67
2021/06/22 03:27:44;;;;;;;16.10;8.65;;;;;;;18.38;94.57;96633.81;5062884;28;20093;-70
2021/06/22 03:30:11;;;;;;;13.43;8.90;;;;;;;18.17;96.19;96642.59;5064021;28;20032;-69
2021/06/22 03:32:37;;;;;;;13.85;9.00;;;;;;;17.92;96.90;96597.41;5062792;28;20047;-67
2021/06/22 03:35:07;;;;;;;11.45;7.97;;;;;;;18.41;95.96;96641.34;5063831;28;20028;-67
2021/06/22 03:37:33;;;;;;;10.05;7.78;;;;;;;18.47;95.57;96633.22;5064119;28;20047;-69
2021/06/22 03:39:59;;;;;;;11.52;7.35;;;;;;;18.52;95.15;96641.13;5063771;28;20032;-68
2021/06/22 03:42:24;;;;;;;8.35;7.50;;;;;;;18.63;94.86;96650.91;5063613;28;20554;-69
2021/06/22 03:44:50;;;;;;;11.90;7.65;;;;;;;17.71;93.42;96466.94;5064332;28;20024;-69
2021/06/22 03:47:18;;;;;;;10.15;8.05;;;;;;;18.65;93.18;96602.78;5063827;28;20439;-68
2021/06/22 03:49:44;;;;;;;8.73;7.82;;;;;;;18.79;92.80;96605.28;5062417;28;20032;-69
2021/06/22 03:52:09;;;;;;;10.30;7.65;;;;;;;18.95;92.72;96645.38;5061732;28;20032;-68
2021/06/22 03:54:35;;;;;;;9.82;7.40;;;;;;;18.93;92.85;96645.06;5062296;28;20032;-70
2021/06/22 03:57:01;;;;;;;12.45;7.95;;;;;;;18.78;92.93;96615.69;5063625;28;20085;-70
2021/06/22 03:59:26;;;;;;;11.82;7.70;;;;;;;19.33;90.86;96646.53;5063786;28;20043;-69
2021/06/22 04:01:52;;;;;;;11.18;7.78;;;;;;;19.46;89.92;96644.63;5063452;28;20476;-70
2021/06/22 04:04:17;;;;;;;8.15;7.38;;;;;;;19.29;90.42;96614.16;5062376;28;20142;-69
2021/06/22 04:06:42;;;;;;;7.85;6.90;;;;;;;19.49;91.18;96635.31;5063492;28;20480;-70
2021/06/22 04:09:08;;;;;;;9.40;7.60;;;;;;;19.53;89.65;96636.06;5063842;28;20047;-69
2021/06/22 04:11:33;;;;;;;9.52;6.28;;;;;;;19.79;88.22;96647.47;5063277;28;20040;-69
2021/06/22 04:13:59;;;;;;;9.43;7.25;;;;;;;19.85;88.35;96656.94;5063909;28;20600;-69
2021/06/22 04:16:24;;;;;;;11.23;7.00;;;;;;;19.98;88.20;96655.00;5063263;28;20490;-69
2021/06/22 04:18:50;;;;;;;8.98;6.78;;;;;;;19.99;87.41;96628.44;5063769;28;20037;-70
2021/06/22 04:21:15;;;;;;;8.68;6.90;;;;;;;20.30;86.92;96655.75;5062768;28;20036;-69
2021/06/22 04:23:41;;;;;;;10.52;6.85;;;;;;;20.11;86.80;96630.53;5063332;28;20034;-69
2021/06/22 04:26:06;;;;;;;8.50;6.85;;;;;;;19.98;85.55;96567.84;5062839;28;20045;-70
2021/06/22 04:28:31;;;;;;;11.00;6.90;;;;;;;20.28;84.72;96613.19;5061969;28;20028;-70
2021/06/22 04:30:57;;;;;;;9.77;7.38;;;;;;;20.09;83.52;96582.38;5062976;28;20039;-69
2021/06/22 04:33:24;;;;;;;14.45;7.80;;;;;;;20.83;83.80;96662.69;5062218;28;20033;-69
2021/06/22 04:35:49;;;;;;;17.58;8.55;;;;;;;21.00;83.06;96664.22;5062828;28;20032;-68
2021/06/22 04:38:15;;;;;;;15.80;7.80;;;;;;;21.14;83.09;96663.78;5063175;28;20574;-69
2021/06/22 04:40:40;;;;;;;19.73;7.68;;;;;;;20.73;82.78;96576.53;5061163;28;20024;-69
2021/06/22 04:43:07;;;;;;;9.30;6.75;;;;;;;21.48;81.68;96665.97;5062599;28;20033;-68
2021/06/22 04:45:33;;;;;;;13.27;8.00;;;;;;;21.19;80.62;96595.63;5062921;28;20119;-69
2021/06/22 04:47:59;;;;;;;12.43;7.57;;;;;;;21.52;79.65;96633.59;5057844;28;20156;-69
2021/06/22 04:50:25;;;;;;;18.10;8.90;;;;;;;21.77;80.81;96661.81;5088251;28;20418;-68
2021/06/22 04:52:51;;;;;;;14.82;7.95;;;;;;;21.87;80.92;96666.31;5062895;28;20037;-69
2021/06/22 04:55:20;;;;;;;16.77;7.15;;;;;;;21.87;80.36;96657.84;5062319;28;20391;-69
2021/06/22 04:57:46;;;;;;;13.98;7.85;;;;;;;21.79;81.01;96650.06;5063144;28;20036;-68
2021/06/22 05:00:14;;;;;;;12.75;7.60;;;;;;;21.87;81.18;96659.88;5062676;28;20483;-69
2021/06/22 05:02:41;;;;;;;13.85;7.85;;;;;;;22.05;80.05;96655.19;5061043;28;20044;-68
2021/06/22 05:05:09;;;;;;;12.90;8.20;;;;;;;21.76;80.23;96592.56;5065432;28;20419;-69
2021/06/22 05:07:35;;;;;;;11.85;7.88;;;;;;;22.33;79.10;96664.72;5065213;28;20507;-69
2021/06/22 05:10:00;;;;;;;11.70;7.57;;;;;;;22.20;80.38;96672.44;5066700;28;20118;-70
2021/06/22 05:12:26;;;;;;;14.63;7.63;;;;;;;22.21;81.00;96635.28;5065942;28;20063;-69
2021/06/22 05:14:52;;;;;;;14.43;9.05;;;;;;;21.62;83.23;96624.03;5064830;28;20035;-70
2021/06/22 05:17:17;;;;;;;14.93;10.77;;;;;;;22.02;84.19;96681.50;5064547;28;20123;-69
2021/06/22 05:19:43;;;;;;;12.50;8.40;;;;;;;22.29;82.98;96681.78;5066054;28;20043;-70
2021/06/22 05:22:08;;;;;;;15.18;8.07;;;;;;;21.82;84.90;96652.78;5065808;28;20048;-69
2021/06/22 05:24:34;;;;;;;11.57;8.57;;;;;;;22.24;82.81;96673.88;5066710;28;20039;-69
2021/06/22 05:27:00;;;;;;;13.70;8.52;;;;;;;21.71;81.40;96556.44;5064315;28;20036;-69
2021/06/22 05:29:25;;;;;;;12.13;8.88;;;;;;;22.57;81.17;96667.94;5066031;28;20466;-68
2021/06/22 05:31:51;;;;;;;12.98;9.13;;;;;;;22.08;82.66;96631.72;5065543;28;20044;-69
2021/06/22 05:34:16;;;;;;;9.95;8.95;;;;;;;21.97;81.91;96577.69;5066070;28;20095;-69
2021/06/22 05:36:42;;;;;;;9.20;8.20;;;;;;;22.76;80.64;96669.66;5064195;28;20037;-69
2021/06/22 05:39:07;;;;;;;9.20;8.30;;;;;;;21.35;85.09;96550.44;5065006;28;20040;-69
2021/06/22 05:41:33;;;;;;;10.60;8.30;;;;;;;21.95;85.00;96673.28;5065816;28;20380;-68
2021/06/22 05:43:58;;;;;;;9.13;8.18;;;;;;;22.36;83.12;96687.19;5064320;28;20157;-68
2021/06/22 05:46:24;;;;;;;8.63;7.68;;;;;;;22.69;81.62;96675.56;5065736;28;20111;-69
2021/06/22 05:48:49;;;;;;;13.52;8.45;;;;;;;22.97;81.25;96672.47;5065603;28;20025;-68
2021/06/22 05:51:16;;;;;;;38.72;10.57;;;;;;;23.13;78.57;96637.56;5063255;28;20033;-65
2021/06/22 05:53:41;;;;;;;10.40;7.13;;;;;;;21.92;77.27;96409.09;5057455;28;20070;-71
2021/06/22 05:56:07;;;;;;;8.18;7.38;;;;;;;21.85;74.53;96381.13;5055941;28;20512;-69
2021/06/22 05:58:32;;;;;;;11.15;7.00;;;;;;;24.00;73.38;96678.53;5058920;28;20082;-60
2021/06/22 06:00:58;;;;;;;7.50;6.78;;;;;;;23.80;73.54;96659.13;5058958;28;20470;-67
2021/06/22 06:03:23;;;;;;;8.07;6.57;;;;;;;23.86;74.18;96673.44;5055815;28;20033;-67
2021/06/22 06:05:49;;;;;;;7.80;7.18;;;;;;;23.98;72.64;96641.41;5062747;28;20044;-65
2021/06/22 06:08:14;;;;;;;9.18;6.13;;;;;;;24.42;71.17;96679.53;5062170;28;20531;-61
2021/06/22 06:10:40;;;;;;;8.38;6.53;;;;;;;24.53;71.13;96682.69;5059565;28;20043;-66
2021/06/22 06:13:06;;;;;;;11.32;6.57;;;;;;;23.21;69.32;96441.03;5062639;28;20036;-68
2021/06/22 06:15:32;;;;;;;6.68;6.07;;;;;;;25.00;68.16;96683.06;5056575;28;20025;-65
2021/06/22 06:17:57;;;;;;;14.90;6.38;;;;;;;25.13;68.20;96686.47;5086420;28;20028;-59
2021/06/22 06:20:24;;;;;;;7.00;6.38;;;;;;;25.39;67.91;96684.09;5064418;28;20024;-59
2021/06/22 06:22:50;;;;;;;6.95;6.35;;;;;;;25.23;67.36;96679.53;5048372;28;20390;-68
2021/06/22 06:25:16;;;;;;;7.75;6.97;;;;;;;24.91;69.78;96685.13;5055293;28;20032;-63
2021/06/22 06:30:13;;;;;;;11.20;6.38;;;;;;;25.60;66.92;96696.50;5064904;28;20030;-70
2021/06/22 06:32:39;;;;;;;7.45;6.75;;;;;;;24.90;67.84;96636.13;5047368;28;20040;-61
2021/06/22 06:35:05;;;;;;;8.65;6.90;;;;;;;25.24;66.81;96641.41;5044927;28;20017;-66
2021/06/22 06:37:31;;;;;;;7.40;6.70;;;;;;;25.92;65.92;96684.38;5045061;28;20067;-61
2021/06/22 06:39:57;;;;;;;8.93;7.63;;;;;;;25.42;65.54;96651.19;5056996;28;20044;-69
2021/06/22 06:42:22;;;;;;;12.02;6.38;;;;;;;25.76;64.50;96636.53;5088195;28;20029;-60
2021/06/22 06:44:48;;;;;;;7.20;6.55;;;;;;;25.94;64.02;96642.13;5051164;28;20048;-67
2021/06/22 06:47:13;;;;;;;7.40;6.32;;;;;;;26.47;63.68;96685.66;5062453;28;20083;-60
2021/06/22 06:49:39;;;;;;;8.00;6.63;;;;;;;25.97;62.90;96619.22;5049454;28;20041;-58
2021/06/22 06:52:05;;;;;;;7.60;6.90;;;;;;;26.21;61.69;96605.03;5058138;28;20120;-59
2021/06/22 06:54:31;;;;;;;6.40;5.90;;;;;;;26.65;61.20;96679.91;5057026;28;20031;-61
2021/06/22 06:56:56;;;;;;;7.25;6.65;;;;;;;26.37;62.83;96635.84;5050190;28;20119;-69
2021/06/22 06:59:22;;;;;;;9.45;7.63;;;;;;;26.36;61.02;96639.97;5050899;28;20043;-68
2021/06/22 07:01:48;;;;;;;8.50;7.80;;;;;;;26.76;60.34;96643.16;5057603;28;20040;-64
2021/06/22 07:04:13;;;;;;;8.82;8.07;;;;;;;27.09;59.74;96660.88;5053803;28;20028;-68
2021/06/22 07:06:39;;;;;;;9.20;8.50;;;;;;;27.43;59.77;96682.97;5052069;28;20047;-70
2021/06/22 07:09:05;;;;;;;11.27;9.95;;;;;;;27.55;60.04;96672.56;5044252;28;20044;-71
2021/06/22 07:11:31;;;;;;;11.60;10.27;;;;;;;27.60;58.37;96675.50;5052114;28;20182;-64
2021/06/22 07:13:57;;;;;;;8.00;7.35;;;;;;;27.70;59.04;96673.34;5052272;28;20082;-59
2021/06/22 07:16:22;;;;;;;7.47;6.60;;;;;;;27.78;59.01;96669.59;5051138;28;20036;-61
2021/06/22 07:18:48;;;;;;;12.05;9.43;;;;;;;27.93;58.25;96670.38;5087302;28;20889;-65
2021/06/22 07:21:16;;;;;;;9.57;8.27;;;;;;;26.84;57.62;96488.03;5052232;28;20040;-59
2021/06/22 07:23:41;;;;;;;10.00;9.10;;;;;;;28.04;58.09;96635.59;5063237;28;20032;-68
2021/06/22 07:26:07;;;;;;;9.93;8.93;;;;;;;28.15;58.27;96641.47;5053999;28;20037;-67
2021/06/22 07:28:33;;;;;;;11.57;8.07;;;;;;;25.75;57.47;96260.41;5059568;28;20029;-67
2021/06/22 07:30:59;;;;;;;11.40;10.20;;;;;;;28.36;58.59;96674.38;5055177;28;20384;-60
2021/06/22 07:33:24;;;;;;;8.98;8.07;;;;;;;28.51;57.37;96671.50;5051781;28;20040;-60
2021/06/22 07:35:50;;;;;;;8.30;7.60;;;;;;;28.58;57.02;96656.84;5061794;28;20051;-67
2021/06/22 07:38:16;;;;;;;8.20;7.13;;;;;;;28.81;56.21;96670.88;5062947;28;20040;-66
2021/06/22 07:40:42;;;;;;;7.18;6.57;;;;;;;28.80;54.84;96640.75;5061274;28;20044;-67
2021/06/22 07:43:07;;;;;;;12.38;9.98;;;;;;;28.45;56.77;96590.81;5062195;28;20047;-61
2021/06/22 07:45:33;;;;;;;7.95;7.15;;;;;;;29.14;55.31;96664.78;5046698;28;20032;-60
2021/06/22 07:47:58;;;;;;;6.07;5.45;;;;;;;29.33;50.91;96677.44;5063053;28;20036;-58
2021/06/22 07:50:24;;;;;;;7.25;6.72;;;;;;;29.31;54.02;96662.88;5060837;28;20415;-66
2021/06/22 07:52:50;;;;;;;10.98;6.68;;;;;;;29.59;52.60;96678.22;5062117;28;20063;-62
2021/06/22 07:55:16;;;;;;;7.35;5.72;;;;;;;29.61;51.17;96669.91;5059713;28;20043;-67
2021/06/22 07:57:44;;;;;;;12.50;7.38;;;;;;;29.40;46.43;96682.69;5087479;28;20486;-66
2021/06/22 08:00:24;;;;;;;8.73;6.22;;;;;;;29.38;45.74;96682.41;5059825;28;20044;-62
2021/06/22 08:02:49;;;;;;;17.25;10.00;;;;;;;29.62;44.43;96685.75;5055912;28;20508;-66
2021/06/22 08:05:15;;;;;;;9.32;6.25;;;;;;;28.83;43.33;96564.84;5061110;28;20127;-63
2021/06/22 08:07:40;;;;;;;9.75;7.20;;;;;;;29.73;43.97;96674.47;5087777;28;20086;-61
2021/06/22 08:10:06;;;;;;;13.43;8.75;;;;;;;29.55;42.58;96614.84;5058335;28;20032;-61
2021/06/22 08:12:32;;;;;;;11.65;6.90;;;;;;;30.03;42.79;96661.47;5058273;28;20120;-58
2021/06/22 08:14:57;;;;;;;5.97;5.00;;;;;;;28.58;42.00;96428.78;5054233;28;20025;-61
2021/06/22 08:17:23;;;;;;;7.28;4.78;;;;;;;30.64;42.27;96664.69;5056640;28;20540;-58
2021/06/22 08:19:48;;;;;;;13.90;6.38;;;;;;;30.58;42.11;96621.78;5059591;28;20032;-59
2021/06/22 08:22:14;;;;;;;8.68;5.40;;;;;;;30.98;42.00;96666.44;5044549;28;20532;-65
2021/06/22 08:24:39;;;;;;;5.70;5.13;;;;;;;30.41;41.75;96663.03;5063592;28;20033;-65
2021/06/22 08:27:05;;;;;;;5.78;4.70;;;;;;;29.50;44.20;96664.09;5057249;28;20040;-64
2021/06/22 08:29:30;;;;;;;7.03;4.88;;;;;;;29.64;42.66;96640.38;5051986;28;20037;-65
2021/06/22 08:31:56;;;;;;;9.80;5.20;;;;;;;30.26;42.66;96674.63;5047953;28;20265;-64
2021/06/22 08:34:21;;;;;;;11.48;6.05;;;;;;;30.35;42.26;96682.22;5086547;28;20147;-60
2021/06/22 08:36:46;;;;;;;5.80;5.30;;;;;;;29.45;44.42;96679.09;5092778;28;20502;-67
2021/06/22 08:39:12;;;;;;;6.38;5.28;;;;;;;28.32;43.25;96440.16;5061934;28;20028;-61
2021/06/22 08:41:39;;;;;;;8.35;5.38;;;;;;;29.86;42.99;96622.63;5058041;28;20041;-68
2021/06/22 08:44:09;;;;;;;12.85;6.88;;;;;;;30.35;40.51;96679.38;5053291;28;20033;-66
2021/06/22 08:46:35;;;;;;;7.07;4.85;;;;;;;30.35;40.18;96677.28;5087518;28;20047;-67
2021/06/22 08:49:00;;;;;;;5.40;4.85;;;;;;;30.54;41.30;96681.28;5060470;28;20831;-69
2021/06/22 08:51:26;;;;;;;6.93;5.03;;;;;;;30.82;41.54;96682.25;5062078;28;20561;-58
2021/06/22 08:53:51;;;;;;;5.97;5.38;;;;;;;31.03;41.94;96684.94;5079852;28;20040;-68
2021/06/22 08:56:17;;;;;;;7.68;5.75;;;;;;;29.74;41.07;96527.53;5049819;28;20040;-63
2021/06/22 08:58:42;;;;;;;7.10;5.28;;;;;;;30.79;41.76;96683.25;5062244;28;20044;-68
2021/06/22 09:01:08;;;;;;;6.72;4.70;;;;;;;30.66;40.63;96588.53;5049772;28;20278;-58
2021/06/22 09:03:33;;;;;;;5.68;4.78;;;;;;;31.62;40.24;96674.13;5087333;28;20439;-58
2021/06/22 09:05:59;;;;;;;5.18;4.57;;;;;;;31.96;40.04;96665.06;5046495;28;20033;-63
2021/06/22 09:08:33;;;;;;;8.65;4.95;;;;;;;32.09;39.64;96676.03;5057246;28;20032;-67
2021/06/22 09:11:06;;;;;;;6.10;4.93;;;;;;;32.25;38.88;96663.72;5064039;28;20032;-68
2021/06/22 09:13:32;;;;;;;7.78;5.03;;;;;;;32.57;38.36;96673.59;5065093;28;20041;-58
2021/06/22 09:15:58;;;;;;;8.02;5.00;;;;;;;32.45;38.45;96677.03;5059701;28;20052;-61
2021/06/22 09:18:31;;;;;;;8.23;5.68;;;;;;;32.27;38.49;96649.66;5055719;28;20751;-67
2021/06/22 09:21:02;;;;;;;6.07;5.45;;;;;;;31.80;39.15;96656.44;5050008;28;20032;-66
2021/06/22 09:23:33;;;;;;;8.32;5.97;;;;;;;31.41;42.93;96641.34;5048851;28;20441;-68
2021/06/22 09:26:00;;;;;;;8.07;5.55;;;;;;;31.30;43.72;96607.72;5098240;28;20060;-67
2021/06/22 09:28:31;;;;;;;10.90;5.80;;;;;;;31.29;43.83;96591.03;5055524;28;20060;-60
2021/06/22 09:31:00;;;;;;;6.20;5.70;;;;;;;31.74;44.46;96675.72;5047076;28;20029;-62
2021/06/22 09:33:33;;;;;;;6.05;5.35;;;;;;;31.29;44.36;96643.34;5054738;28;20032;-66
2021/06/22 09:36:07;;;;;;;6.55;5.22;;;;;;;31.80;43.92;96682.22;5047891;28;20032;-69
2021/06/22 09:38:39;;;;;;;8.93;5.50;;;;;;;31.83;42.93;96678.31;5046537;28;20051;-61
2021/06/22 09:41:12;;;;;;;5.82;5.22;;;;;;;31.92;41.79;96680.94;5054076;28;20082;-67
2021/06/22 09:43:42;;;;;;;6.25;5.40;;;;;;;31.96;41.43;96675.75;5064282;28;20063;-62
2021/06/22 09:46:08;;;;;;;9.27;5.60;;;;;;;31.62;41.10;96613.97;5056128;28;20052;-60
2021/06/22 09:48:45;;;;;;;7.50;5.38;;;;;;;31.62;40.91;96672.06;5056182;28;20115;-62
2021/06/22 09:51:11;;;;;;;6.22;5.10;;;;;;;31.93;40.59;96639.53;5086068;28;20024;-67
2021/06/22 09:53:37;;;;;;;10.63;6.05;;;;;;;32.12;40.10;96568.91;5065635;28;20036;-61
2021/06/22 09:56:05;;;;;;;24.20;13.45;;;;;;;32.95;38.98;96669.84;5048942;28;20033;-65
2021/06/22 09:58:50;;;;;;;11.35;7.65;;;;;;;32.58;39.72;96663.66;5047378;28;20048;-60
2021/06/22 10:01:32;;;;;;;10.20;6.40;;;;;;;32.48;40.57;96632.94;5097760;28;20028;-69
2021/06/22 10:04:15;;;;;;;5.77;5.23;;;;;;;33.01;38.89;96656.22;5066414;28;20054;-61
2021/06/22 10:06:41;;;;;;;7.82;5.07;;;;;;;33.28;38.24;96635.19;5065588;28;20046;-68
2021/06/22 10:09:07;;;;;;;8.73;6.25;;;;;;;34.10;37.56;96658.91;5065838;28;20407;-68
2021/06/22 10:11:39;;;;;;;9.52;6.40;;;;;;;33.27;37.86;96673.84;5065316;28;20066;-59
2021/06/22 10:14:09;;;;;;;13.13;6.95;;;;;;;32.95;39.28;96669.03;5096892;28;20090;-68
2021/06/22 10:16:36;;;;;;;9.13;7.55;;;;;;;33.06;39.09;96677.59;5063249;28;20545;-58
2021/06/22 10:19:06;;;;;;;8.23;5.80;;;;;;;33.27;37.92;96668.13;5091494;28;20556;-65
2021/06/22 10:21:33;;;;;;;9.65;6.53;;;;;;;32.82;38.77;96660.97;5046419;28;20029;-65
2021/06/22 10:24:00;;;;;;;13.45;6.55;;;;;;;33.55;38.89;96653.59;5048762;28;20041;-68
2021/06/22 10:26:28;;;;;;;10.38;7.18;;;;;;;33.81;38.21;96658.88;5065508;28;20110;-61
2021/06/22 10:28:58;;;;;;;7.20;6.13;;;;;;;33.33;36.92;96558.94;5065655;28;20039;-68
2021/06/22 10:31:24;;;;;;;6.47;5.45;;;;;;;34.24;37.03;96651.97;5062928;28;20032;-60
2021/06/22 10:33:51;;;;;;;7.53;5.32;;;;;;;34.09;36.37;96553.84;5079283;28;20036;-68
2021/06/22 10:36:23;;;;;;;7.88;6.22;;;;;;;34.60;36.23;96647.72;5061317;28;20028;-62
2021/06/22 10:38:51;;;;;;;8.05;6.05;;;;;;;34.48;35.82;96642.59;5064858;28;20036;-59
2021/06/22 10:41:19;;;;;;;9.32;6.40;;;;;;;34.76;35.53;96645.97;5094380;28;20048;-61
2021/06/22 10:43:47;;;;;;;8.38;5.72;;;;;;;34.19;36.73;96585.88;5053826;28;20051;-67
2021/06/22 10:46:18;;;;;;;6.15;5.53;;;;;;;34.06;35.91;96534.78;5054677;28;20372;-66
2021/06/22 10:48:46;;;;;;;8.10;5.95;;;;;;;34.89;35.80;96637.44;5064906;28;20044;-59
2021/06/22 10:51:39;;;;;;;9.15;5.63;;;;;;;35.39;35.28;96654.84;5054541;28;20499;-68
2021/06/22 10:54:05;;;;;;;7.95;5.68;;;;;;;35.76;35.12;96628.84;5045059;28;20049;-61
2021/06/22 10:56:32;;;;;;;6.60;5.90;;;;;;;35.57;33.78;96616.56;5044505;28;20146;-67
2021/06/22 10:59:15;;;;;;;6.30;5.70;;;;;;;35.73;34.22;96635.72;5055087;28;20036;-60
2021/06/22 11:01:53;;;;;;;8.85;8.05;;;;;;;35.37;34.74;96631.56;5086121;28;20123;-68
2021/06/22 11:04:23;;;;;;;6.38;5.85;;;;;;;35.14;35.10;96613.03;5060065;28;20291;-60
2021/06/22 11:07:19;;;;;;;6.82;5.88;;;;;;;35.03;38.09;96595.91;5062185;28;20052;-68
2021/06/22 11:10:11;;;;;;;8.30;6.70;;;;;;;35.49;37.31;96632.94;5059998;28;20041;-63
2021/06/22 11:12:53;;;;;;;7.65;6.30;;;;;;;35.62;36.89;96630.13;5076662;28;20463;-67
2021/06/22 11:15:18;;;;;;;7.82;6.53;;;;;;;35.25;37.48;96618.63;5049275;28;20033;-60
2021/06/22 11:17:44;;;;;;;7.10;6.40;;;;;;;35.08;38.07;96623.81;5049328;28;20052;-65
2021/06/22 11:20:15;;;;;;;10.43;6.00;;;;;;;34.04;38.17;96470.50;5043790;28;20041;-66
2021/06/22 11:23:07;;;;;;;10.88;6.32;;;;;;;35.03;38.32;96625.47;5060516;28;20143;-69
2021/06/22 11:26:03;;;;;;;6.43;5.82;;;;;;;34.79;35.63;96581.53;5062120;28;20514;-66
2021/06/22 11:28:50;;;;;;;7.68;5.80;;;;;;;34.81;36.78;96584.63;5058001;28;20475;-60
2021/06/22 11:31:35;;;;;;;8.18;6.40;;;;;;;34.66;37.09;96585.09;5042843;28;20091;-66